IE-0024 weather

Killamaster Airstrip
County Carlow, Ireland

Public forecast

Using degrees Celsius for public forecast. Weather courtesy of forecast.io.

METAR (pilot weather report)

Closest report is Casement Air Base, 29.2 nm (54.0 km) NNE. Retrieved 2019/06/20 15:30 UTC (0 seconds ago):

EIME 201530Z VRB03KT 9999 FEW018CB SCT030 BKN070 14/09 Q1011

TAF (pilot weather forecast)

Closest forecast is Dublin Airport, 38.6 nm (71.4 km) NNE. Retrieved 2019/06/20 12:09 UTC (3 hours ago):

TAF EIDW 201100Z 2012/2112 26012KT 9999 FEW015 SCT020 TEMPO 2012/2020 SHRA SCT018CB TEMPO 2018/2022 VRB03KT BECMG 2021/2023 29006KT BECMG 2101/2103 26008KT PROB30 TEMPO 2102/2106 5000 BR BKN015